sensor_id;sensor_type;location;lat;lon;timestamp;pressure;altitude;pressure_sealevel;temperature;humidity
78825;BME280;68176;45.554;10.220;2023-03-31T00:00:51;100038.63;;;15.82;47.38
78825;BME280;68176;45.554;10.220;2023-03-31T00:03:20;100038.63;;;15.82;47.48
78825;BME280;68176;45.554;10.220;2023-03-31T00:05:57;100015.66;;;15.75;47.83
78825;BME280;68176;45.554;10.220;2023-03-31T00:08:23;100007.38;;;15.70;47.52
78825;BME280;68176;45.554;10.220;2023-03-31T00:10:50;100017.63;;;15.73;47.37
78825;BME280;68176;45.554;10.220;2023-03-31T00:13:20;100005.75;;;15.77;47.59
78825;BME280;68176;45.554;10.220;2023-03-31T00:15:55;99994.13;;;15.70;47.52
78825;BME280;68176;45.554;10.220;2023-03-31T00:18:21;100000.94;;;15.72;47.31
78825;BME280;68176;45.554;10.220;2023-03-31T00:20:51;99992.00;;;15.65;47.33
78825;BME280;68176;45.554;10.220;2023-03-31T00:23:20;99979.75;;;15.64;47.81
78825;BME280;68176;45.554;10.220;2023-03-31T00:25:52;99990.19;;;15.66;47.73
78825;BME280;68176;45.554;10.220;2023-03-31T00:28:20;99979.13;;;15.70;47.63
78825;BME280;68176;45.554;10.220;2023-03-31T00:30:50;99974.66;;;15.71;47.38
78825;BME280;68176;45.554;10.220;2023-03-31T00:33:20;99978.44;;;15.68;47.40
78825;BME280;68176;45.554;10.220;2023-03-31T00:35:50;99972.00;;;15.71;47.58
78825;BME280;68176;45.554;10.220;2023-03-31T00:38:20;99971.19;;;15.70;47.50
78825;BME280;68176;45.554;10.220;2023-03-31T00:40:50;99970.16;;;15.63;47.60
78825;BME280;68176;45.554;10.220;2023-03-31T00:43:26;99979.47;;;15.75;47.57
78825;BME280;68176;45.554;10.220;2023-03-31T00:48:37;99966.22;;;15.67;47.65
78825;BME280;68176;45.554;10.220;2023-03-31T00:51:05;99953.16;;;15.66;47.83
78825;BME280;68176;45.554;10.220;2023-03-31T00:53:32;99955.63;;;15.67;47.59
78825;BME280;68176;45.554;10.220;2023-03-31T00:56:06;99945.75;;;15.69;47.57
78825;BME280;68176;45.554;10.220;2023-03-31T00:58:33;99936.81;;;15.62;47.44
78825;BME280;68176;45.554;10.220;2023-03-31T01:01:02;99928.38;;;15.67;47.52
78825;BME280;68176;45.554;10.220;2023-03-31T01:03:31;99925.72;;;15.67;47.38
78825;BME280;68176;45.554;10.220;2023-03-31T01:06:05;99920.44;;;15.59;47.50
78825;BME280;68176;45.554;10.220;2023-03-31T01:08:35;99936.28;;;15.59;47.80
78825;BME280;68176;45.554;10.220;2023-03-31T01:11:07;99947.38;;;15.70;47.63
78825;BME280;68176;45.554;10.220;2023-03-31T01:13:41;99944.56;;;15.64;47.68
78825;BME280;68176;45.554;10.220;2023-03-31T01:16:07;99935.47;;;15.58;47.88
78825;BME280;68176;45.554;10.220;2023-03-31T01:18:34;99945.91;;;15.68;47.69
78825;BME280;68176;45.554;10.220;2023-03-31T01:43:01;99917.59;;;15.60;48.06
78825;BME280;68176;45.554;10.220;2023-03-31T01:48:01;99903.09;;;15.56;47.92
78825;BME280;68176;45.554;10.220;2023-03-31T01:50:47;99890.81;;;15.47;47.78
78825;BME280;68176;45.554;10.220;2023-03-31T01:56:39;99877.25;;;15.42;48.08
78825;BME280;68176;45.554;10.220;2023-03-31T02:02:00;99906.88;;;15.54;48.17
78825;BME280;68176;45.554;10.220;2023-03-31T02:04:32;99889.19;;;15.54;48.04
78825;BME280;68176;45.554;10.220;2023-03-31T02:07:03;99879.41;;;15.46;47.93
78825;BME280;68176;45.554;10.220;2023-03-31T02:09:36;99883.09;;;15.54;48.06
78825;BME280;68176;45.554;10.220;2023-03-31T02:12:07;99877.31;;;15.50;47.91
78825;BME280;68176;45.554;10.220;2023-03-31T02:14:36;99892.84;;;15.53;47.95
78825;BME280;68176;45.554;10.220;2023-03-31T02:17:02;99887.69;;;15.52;48.04
78825;BME280;68176;45.554;10.220;2023-03-31T02:19:36;99887.69;;;15.52;48.22
78825;BME280;68176;45.554;10.220;2023-03-31T02:22:05;99866.66;;;15.42;47.90
78825;BME280;68176;45.554;10.220;2023-03-31T02:24:32;99874.66;;;15.50;47.96
78825;BME280;68176;45.554;10.220;2023-03-31T02:29:33;99890.66;;;15.48;48.11
78825;BME280;68176;45.554;10.220;2023-03-31T02:34:28;99898.13;;;15.53;48.15
78825;BME280;68176;45.554;10.220;2023-03-31T02:36:58;99895.31;;;15.55;47.93
78825;BME280;68176;45.554;10.220;2023-03-31T02:39:33;99887.38;;;15.55;47.89
78825;BME280;68176;45.554;10.220;2023-03-31T02:41:59;99877.97;;;15.52;47.96
78825;BME280;68176;45.554;10.220;2023-03-31T02:44:34;99873.97;;;15.48;47.92
78825;BME280;68176;45.554;10.220;2023-03-31T02:47:00;99873.00;;;15.49;47.73
78825;BME280;68176;45.554;10.220;2023-03-31T02:49:29;99875.97;;;15.54;48.09
78825;BME280;68176;45.554;10.220;2023-03-31T02:52:09;99860.09;;;15.54;48.06
78825;BME280;68176;45.554;10.220;2023-03-31T03:00:26;99853.53;;;15.50;48.07
78825;BME280;68176;45.554;10.220;2023-03-31T03:04:01;99843.94;;;15.49;47.95
78825;BME280;68176;45.554;10.220;2023-03-31T03:14:33;99842.13;;;15.50;47.85
78825;BME280;68176;45.554;10.220;2023-03-31T03:17:06;99847.56;;;15.48;48.17
78825;BME280;68176;45.554;10.220;2023-03-31T03:19:33;99844.91;;;15.48;48.13
78825;BME280;68176;45.554;10.220;2023-03-31T03:21:58;99837.97;;;15.47;48.07
78825;BME280;68176;45.554;10.220;2023-03-31T03:24:27;99821.81;;;15.50;47.94
78825;BME280;68176;45.554;10.220;2023-03-31T03:26:57;99820.97;;;15.50;48.10
78825;BME280;68176;45.554;10.220;2023-03-31T03:29:27;99816.50;;;15.50;48.03
78825;BME280;68176;45.554;10.220;2023-03-31T03:31:57;99823.06;;;15.46;48.19
78825;BME280;68176;45.554;10.220;2023-03-31T03:34:27;99825.44;;;15.49;47.99
78825;BME280;68176;45.554;10.220;2023-03-31T03:36:57;99828.06;;;15.49;48.00
78825;BME280;68176;45.554;10.220;2023-03-31T03:39:27;99843.78;;;15.51;47.75
78825;BME280;68176;45.554;10.220;2023-03-31T03:41:57;99848.22;;;15.50;47.74
78825;BME280;68176;45.554;10.220;2023-03-31T03:44:27;99843.25;;;15.47;47.92
78825;BME280;68176;45.554;10.220;2023-03-31T03:46:57;99839.47;;;15.50;47.87
78825;BME280;68176;45.554;10.220;2023-03-31T03:49:27;99841.13;;;15.51;47.90
78825;BME280;68176;45.554;10.220;2023-03-31T03:51:57;99828.72;;;15.51;47.87
78825;BME280;68176;45.554;10.220;2023-03-31T03:54:27;99831.38;;;15.51;47.66
78825;BME280;68176;45.554;10.220;2023-03-31T03:56:58;99827.09;;;15.50;47.82
78825;BME280;68176;45.554;10.220;2023-03-31T03:59:27;99820.78;;;15.51;47.79
78825;BME280;68176;45.554;10.220;2023-03-31T04:01:57;99823.44;;;15.51;47.76
78825;BME280;68176;45.554;10.220;2023-03-31T04:04:27;99840.94;;;15.52;47.80
78825;BME280;68176;45.554;10.220;2023-03-31T04:06:57;99840.59;;;15.47;47.85
78825;BME280;68176;45.554;10.220;2023-03-31T04:09:27;99839.28;;;15.51;47.72
78825;BME280;68176;45.554;10.220;2023-03-31T04:11:57;99851.53;;;15.52;47.51
78825;BME280;68176;45.554;10.220;2023-03-31T04:14:27;99850.69;;;15.52;47.71
78825;BME280;68176;45.554;10.220;2023-03-31T04:16:57;99848.88;;;15.52;47.78
78825;BME280;68176;45.554;10.220;2023-03-31T04:19:27;99838.50;;;15.51;47.96
78825;BME280;68176;45.554;10.220;2023-03-31T04:21:57;99821.41;;;15.45;47.75
78825;BME280;68176;45.554;10.220;2023-03-31T04:24:27;99820.97;;;15.50;47.48
78825;BME280;68176;45.554;10.220;2023-03-31T04:26:59;99825.44;;;15.49;47.71
78825;BME280;68176;45.554;10.220;2023-03-31T04:29:27;99820.13;;;15.49;47.77
78825;BME280;68176;45.554;10.220;2023-03-31T04:31:57;99827.09;;;15.50;47.68
78825;BME280;68176;45.554;10.220;2023-03-31T04:34:28;99836.81;;;15.50;47.73
78825;BME280;68176;45.554;10.220;2023-03-31T04:36:59;99833.97;;;15.43;47.77
78825;BME280;68176;45.554;10.220;2023-03-31T04:39:28;99837.97;;;15.47;48.00
78825;BME280;68176;45.554;10.220;2023-03-31T04:41:59;99835.16;;;15.48;47.71
78825;BME280;68176;45.554;10.220;2023-03-31T04:44:28;99823.75;;;15.48;47.70
78825;BME280;68176;45.554;10.220;2023-03-31T04:46:57;99837.97;;;15.47;47.90
78825;BME280;68176;45.554;10.220;2023-03-31T04:49:28;99830.19;;;15.45;47.79
78825;BME280;68176;45.554;10.220;2023-03-31T04:51:57;99820.44;;;15.46;47.73
78825;BME280;68176;45.554;10.220;2023-03-31T04:54:27;99817.78;;;15.46;47.93
78825;BME280;68176;45.554;10.220;2023-03-31T04:56:57;99823.06;;;15.46;47.83
78825;BME280;68176;45.554;10.220;2023-03-31T04:59:28;99815.16;;;15.46;47.56
78825;BME280;68176;45.554;10.220;2023-03-31T05:01:58;99814.16;;;15.47;47.80
78825;BME280;68176;45.554;10.220;2023-03-31T05:04:28;99802.09;;;15.44;48.26
78825;BME280;68176;45.554;10.220;2023-03-31T05:06:57;99794.47;;;15.41;48.05
78825;BME280;68176;45.554;10.220;2023-03-31T05:09:28;99785.44;;;15.44;47.86
78825;BME280;68176;45.554;10.220;2023-03-31T05:11:58;99779.13;;;15.45;47.63
78825;BME280;68176;45.554;10.220;2023-03-31T05:14:27;99793.69;;;15.41;48.01
78825;BME280;68176;45.554;10.220;2023-03-31T05:16:58;99790.03;;;15.42;47.82
78825;BME280;68176;45.554;10.220;2023-03-31T05:19:27;99807.03;;;15.39;48.08
78825;BME280;68176;45.554;10.220;2023-03-31T05:21:58;99806.72;;;15.42;47.94
78825;BME280;68176;45.554;10.220;2023-03-31T05:24:28;99818.59;;;15.38;48.03
78825;BME280;68176;45.554;10.220;2023-03-31T05:26:58;99819.28;;;15.40;48.00
78825;BME280;68176;45.554;10.220;2023-03-31T05:29:28;99812.00;;;15.42;48.01
78825;BME280;68176;45.554;10.220;2023-03-31T05:31:58;99803.25;;;15.42;47.99
78825;BME280;68176;45.554;10.220;2023-03-31T05:34:28;99792.03;;;15.40;47.71
78825;BME280;68176;45.554;10.220;2023-03-31T05:36:58;99798.28;;;15.39;47.92
78825;BME280;68176;45.554;10.220;2023-03-31T05:39:28;99780.47;;;15.41;47.96
78825;BME280;68176;45.554;10.220;2023-03-31T05:41:58;99783.25;;;15.39;47.81
78825;BME280;68176;45.554;10.220;2023-03-31T05:44:28;99776.16;;;15.40;48.06
78825;BME280;68176;45.554;10.220;2023-03-31T05:46:58;99773.53;;;15.40;47.88
78825;BME280;68176;45.554;10.220;2023-03-31T05:49:28;99770.53;;;15.35;48.14
78825;BME280;68176;45.554;10.220;2023-03-31T05:51:58;99762.13;;;15.39;48.01
78825;BME280;68176;45.554;10.220;2023-03-31T05:54:28;99765.59;;;15.40;47.80
78825;BME280;68176;45.554;10.220;2023-03-31T05:56:58;99764.44;;;15.34;48.28
78825;BME280;68176;45.554;10.220;2023-03-31T05:59:28;99764.94;;;15.38;48.12
78825;BME280;68176;45.554;10.220;2023-03-31T06:01:58;99761.63;;;15.36;47.90
78825;BME280;68176;45.554;10.220;2023-03-31T06:04:28;99757.81;;;15.38;47.96
78825;BME280;68176;45.554;10.220;2023-03-31T06:06:58;99757.00;;;15.38;48.06
78825;BME280;68176;45.554;10.220;2023-03-31T06:09:28;99755.34;;;15.37;47.92
78825;BME280;68176;45.554;10.220;2023-03-31T06:11:58;99752.72;;;15.37;47.79
78825;BME280;68176;45.554;10.220;2023-03-31T06:14:28;99749.09;;;15.38;48.22
78825;BME280;68176;45.554;10.220;2023-03-31T06:16:58;99748.75;;;15.33;48.08
78825;BME280;68176;45.554;10.220;2023-03-31T06:19:28;99742.47;;;15.34;48.15
78825;BME280;68176;45.554;10.220;2023-03-31T06:21:58;99745.75;;;15.36;48.32
78825;BME280;68176;45.554;10.220;2023-03-31T06:24:28;99740.47;;;15.36;48.02
78825;BME280;68176;45.554;10.220;2023-03-31T06:26:58;99752.72;;;15.37;48.08
78825;BME280;68176;45.554;10.220;2023-03-31T06:29:28;99744.94;;;15.35;48.15
78825;BME280;68176;45.554;10.220;2023-03-31T06:31:58;99740.47;;;15.36;47.95
78825;BME280;68176;45.554;10.220;2023-03-31T06:34:28;99744.09;;;15.35;47.94
78825;BME280;68176;45.554;10.220;2023-03-31T06:36:58;99744.78;;;15.37;48.16
78825;BME280;68176;45.554;10.220;2023-03-31T06:39:28;99742.16;;;15.37;48.18
78825;BME280;68176;45.554;10.220;2023-03-31T06:41:58;99727.28;;;15.36;48.24
78825;BME280;68176;45.554;10.220;2023-03-31T06:44:28;99717.69;;;15.35;48.00
78825;BME280;68176;45.554;10.220;2023-03-31T06:46:58;99710.59;;;15.35;47.94
78825;BME280;68176;45.554;10.220;2023-03-31T06:49:28;99712.41;;;15.35;47.83
78825;BME280;68176;45.554;10.220;2023-03-31T06:51:58;99727.44;;;15.34;48.00
78825;BME280;68176;45.554;10.220;2023-03-31T06:54:28;99726.13;;;15.30;48.34
78825;BME280;68176;45.554;10.220;2023-03-31T06:56:58;99723.97;;;15.34;48.13
78825;BME280;68176;45.554;10.220;2023-03-31T06:59:28;99724.63;;;15.36;48.17
78825;BME280;68176;45.554;10.220;2023-03-31T07:01:58;99729.06;;;15.35;48.15
78825;BME280;68176;45.554;10.220;2023-03-31T07:04:28;99732.56;;;15.36;48.15
78825;BME280;68176;45.554;10.220;2023-03-31T07:06:58;99732.56;;;15.36;48.04
78825;BME280;68176;45.554;10.220;2023-03-31T07:09:28;99729.91;;;15.36;48.31
78825;BME280;68176;45.554;10.220;2023-03-31T07:11:58;99723.78;;;15.35;48.15
78825;BME280;68176;45.554;10.220;2023-03-31T07:14:28;99718.50;;;15.35;48.18
78825;BME280;68176;45.554;10.220;2023-03-31T07:16:58;99713.22;;;15.35;48.11
78825;BME280;68176;45.554;10.220;2023-03-31T07:19:28;99711.41;;;15.36;48.12
78825;BME280;68176;45.554;10.220;2023-03-31T07:21:58;99708.78;;;15.36;48.08
78825;BME280;68176;45.554;10.220;2023-03-31T07:24:28;99699.19;;;15.35;48.32
78825;BME280;68176;45.554;10.220;2023-03-31T07:26:58;99706.13;;;15.36;48.13
78825;BME280;68176;45.554;10.220;2023-03-31T07:29:28;99691.94;;;15.37;48.41
78825;BME280;68176;45.554;10.220;2023-03-31T07:31:58;99697.22;;;15.37;48.18
78825;BME280;68176;45.554;10.220;2023-03-31T07:34:28;99682.34;;;15.36;48.02
78825;BME280;68176;45.554;10.220;2023-03-31T07:36:58;99694.72;;;15.35;48.30
78825;BME280;68176;45.554;10.220;2023-03-31T07:39:28;99682.34;;;15.36;48.13
78825;BME280;68176;45.554;10.220;2023-03-31T07:41:58;99681.38;;;15.37;48.06
78825;BME280;68176;45.554;10.220;2023-03-31T07:44:28;99690.28;;;15.36;48.33
78825;BME280;68176;45.554;10.220;2023-03-31T07:46:59;99686.97;;;15.34;48.14
78825;BME280;68176;45.554;10.220;2023-03-31T07:49:29;99687.63;;;15.36;48.39
78825;BME280;68176;45.554;10.220;2023-03-31T07:51:59;99680.69;;;15.35;48.27
78825;BME280;68176;45.554;10.220;2023-03-31T07:54:28;99679.69;;;15.36;48.04
78825;BME280;68176;45.554;10.220;2023-03-31T07:56:58;99662.88;;;15.37;48.03
78825;BME280;68176;45.554;10.220;2023-03-31T07:59:29;99660.22;;;15.37;48.31
78825;BME280;68176;45.554;10.220;2023-03-31T08:02:00;99670.63;;;15.38;48.20
78825;BME280;68176;45.554;10.220;2023-03-31T08:04:28;99675.09;;;15.38;48.09
78825;BME280;68176;45.554;10.220;2023-03-31T08:06:59;99653.97;;;15.38;47.93
78825;BME280;68176;45.554;10.220;2023-03-31T08:09:28;99652.63;;;15.34;48.35
78825;BME280;68176;45.554;10.220;2023-03-31T08:11:59;99652.28;;;15.37;48.20
78825;BME280;68176;45.554;10.220;2023-03-31T08:14:29;99647.66;;;15.39;48.18
78825;BME280;68176;45.554;10.220;2023-03-31T08:16:58;99647.66;;;15.39;48.14
78825;BME280;68176;45.554;10.220;2023-03-31T08:19:29;99646.84;;;15.38;48.12
78825;BME280;68176;45.554;10.220;2023-03-31T08:21:59;99645.00;;;15.39;48.22
78825;BME280;68176;45.554;10.220;2023-03-31T08:24:29;99636.09;;;15.40;48.30
78825;BME280;68176;45.554;10.220;2023-03-31T08:26:59;99645.00;;;15.39;48.47
78825;BME280;68176;45.554;10.220;2023-03-31T08:29:29;99646.69;;;15.40;48.71
78825;BME280;68176;45.554;10.220;2023-03-31T08:31:58;99651.47;;;15.36;48.73
78825;BME280;68176;45.554;10.220;2023-03-31T08:34:29;99648.66;;;15.38;48.48
78825;BME280;68176;45.554;10.220;2023-03-31T08:36:59;99648.34;;;15.41;48.63
78825;BME280;68176;45.554;10.220;2023-03-31T08:39:29;99664.19;;;15.41;48.74
78825;BME280;68176;45.554;10.220;2023-03-31T08:42:07;99665.81;;;15.42;48.66
78825;BME280;68176;45.554;10.220;2023-03-31T08:44:56;99668.97;;;15.37;48.71
78825;BME280;68176;45.554;10.220;2023-03-31T08:47:26;99674.28;;;15.37;48.75
78825;BME280;68176;45.554;10.220;2023-03-31T08:49:56;99678.72;;;15.37;48.70
78825;BME280;68176;45.554;10.220;2023-03-31T08:52:47;99662.88;;;15.37;48.32
78825;BME280;68176;45.554;10.220;2023-03-31T08:55:23;99649.81;;;15.35;48.44
78825;BME280;68176;45.554;10.220;2023-03-31T08:57:58;99649.81;;;15.35;48.50
78825;BME280;68176;45.554;10.220;2023-03-31T09:00:32;99645.34;;;15.36;48.71
78825;BME280;68176;45.554;10.220;2023-03-31T09:03:04;99626.22;;;15.34;48.68
78825;BME280;68176;45.554;10.220;2023-03-31T09:05:50;99618.44;;;15.32;48.55
78825;BME280;68176;45.554;10.220;2023-03-31T09:08:31;99631.50;;;15.34;48.72
78825;BME280;68176;45.554;10.220;2023-03-31T09:11:01;99625.53;;;15.32;48.79
78825;BME280;68176;45.554;10.220;2023-03-31T09:16:14;99620.25;;;15.32;48.60
78825;BME280;68176;45.554;10.220;2023-03-31T09:18:41;99623.72;;;15.32;49.13
78825;BME280;68176;45.554;10.220;2023-03-31T09:23:50;99627.19;;;15.33;48.81
78825;BME280;68176;45.554;10.220;2023-03-31T09:28:51;99620.25;;;15.32;48.87
78825;BME280;68176;45.554;10.220;2023-03-31T09:31:19;99613.16;;;15.32;48.88
78825;BME280;68176;45.554;10.220;2023-03-31T09:33:46;99611.97;;;15.35;48.68
78825;BME280;68176;45.554;10.220;2023-03-31T09:36:20;99603.91;;;15.36;48.73
78825;BME280;68176;45.554;10.220;2023-03-31T09:38:48;99587.56;;;15.33;49.00
78825;BME280;68176;45.554;10.220;2023-03-31T09:41:16;99589.88;;;15.36;49.02
78825;BME280;68176;45.554;10.220;2023-03-31T09:43:45;99583.59;;;15.37;48.59
78825;BME280;68176;45.554;10.220;2023-03-31T09:46:23;99579.97;;;15.38;49.24
78825;BME280;68176;45.554;10.220;2023-03-31T09:48:59;99567.06;;;15.35;49.03
78825;BME280;68176;45.554;10.220;2023-03-31T09:51:29;99564.41;;;15.35;48.80
78825;BME280;68176;45.554;10.220;2023-03-31T09:54:18;99565.25;;;15.35;48.93
78825;BME280;68176;45.554;10.220;2023-03-31T09:56:49;99550.22;;;15.36;49.07
78825;BME280;68176;45.554;10.220;2023-03-31T09:59:19;99547.59;;;15.36;48.80
78825;BME280;68176;45.554;10.220;2023-03-31T10:01:48;99551.22;;;15.35;49.08
78825;BME280;68176;45.554;10.220;2023-03-31T10:04:26;99554.69;;;15.35;49.27
78825;BME280;68176;45.554;10.220;2023-03-31T10:06:53;99576.66;;;15.36;49.26
78825;BME280;68176;45.554;10.220;2023-03-31T10:09:29;99577.63;;;15.35;49.06
78825;BME280;68176;45.554;10.220;2023-03-31T10:12:07;99581.94;;;15.36;49.37
78825;BME280;68176;45.554;10.220;2023-03-31T10:14:40;99567.91;;;15.35;49.11
78825;BME280;68176;45.554;10.220;2023-03-31T10:17:13;99575.00;;;15.35;49.48
78825;BME280;68176;45.554;10.220;2023-03-31T10:19:53;99565.09;;;15.37;49.09
78825;BME280;68176;45.554;10.220;2023-03-31T10:24:49;99560.97;;;15.34;49.02
78825;BME280;68176;45.554;10.220;2023-03-31T10:27:29;99556.34;;;15.36;49.21
78825;BME280;68176;45.554;10.220;2023-03-31T10:30:00;99549.25;;;15.37;49.06
78825;BME280;68176;45.554;10.220;2023-03-31T10:32:31;99543.78;;;15.38;49.05
78825;BME280;68176;45.554;10.220;2023-03-31T10:35:04;99529.41;;;15.41;48.79
78825;BME280;68176;45.554;10.220;2023-03-31T10:37:31;99517.84;;;15.42;48.63
78825;BME280;68176;45.554;10.220;2023-03-31T10:40:02;99520.31;;;15.43;48.07
78825;BME280;68176;45.554;10.220;2023-03-31T10:42:31;99511.06;;;15.47;47.93
78825;BME280;68176;45.554;10.220;2023-03-31T10:47:39;99513.22;;;15.52;47.31
78825;BME280;68176;45.554;10.220;2023-03-31T10:50:14;99499.00;;;15.53;47.45
78825;BME280;68176;45.554;10.220;2023-03-31T10:52:45;99486.44;;;15.55;47.13
78825;BME280;68176;45.554;10.220;2023-03-31T10:55:22;99477.81;;;15.61;47.36
78825;BME280;68176;45.554;10.220;2023-03-31T10:57:55;99476.47;;;15.65;47.12
78825;BME280;68176;45.554;10.220;2023-03-31T11:03:30;99455.94;;;15.75;46.98
78825;BME280;68176;45.554;10.220;2023-03-31T11:06:11;99441.34;;;15.79;46.75
78825;BME280;68176;45.554;10.220;2023-03-31T11:16:57;99399.00;;;15.87;47.00
78825;BME280;68176;45.554;10.220;2023-03-31T11:25:17;99372.69;;;16.09;46.85
78825;BME280;68176;45.554;10.220;2023-03-31T11:33:29;99368.72;;;16.13;47.09
78825;BME280;68176;45.554;10.220;2023-03-31T11:41:45;99352.47;;;16.16;46.83
78825;BME280;68176;45.554;10.220;2023-03-31T11:44:15;99352.84;;;16.13;46.94
78825;BME280;68176;45.554;10.220;2023-03-31T11:46:43;99342.63;;;16.10;46.99
78825;BME280;68176;45.554;10.220;2023-03-31T11:49:20;99333.03;;;16.09;47.03
78825;BME280;68176;45.554;10.220;2023-03-31T11:52:15;99330.38;;;16.09;46.87
78825;BME280;68176;45.554;10.220;2023-03-31T11:55:02;99334.00;;;16.08;47.32
78825;BME280;68176;45.554;10.220;2023-03-31T11:57:35;99334.22;;;16.06;47.18
78825;BME280;68176;45.554;10.220;2023-03-31T12:00:16;99334.38;;;16.05;47.27
78825;BME280;68176;45.554;10.220;2023-03-31T12:05:30;99308.47;;;16.00;47.42
78825;BME280;68176;45.554;10.220;2023-03-31T12:10:31;99307.81;;;15.98;47.79
78825;BME280;68176;45.554;10.220;2023-03-31T12:13:03;99308.84;;;15.97;47.66
78825;BME280;68176;45.554;10.220;2023-03-31T12:15:41;99295.63;;;15.97;48.19
78825;BME280;68176;45.554;10.220;2023-03-31T12:18:22;99289.50;;;15.96;47.93
78825;BME280;68176;45.554;10.220;2023-03-31T12:20:57;99287.03;;;15.95;47.39
78825;BME280;68176;45.554;10.220;2023-03-31T12:23:32;99281.28;;;15.91;47.47
78825;BME280;68176;45.554;10.220;2023-03-31T12:28:38;99282.28;;;15.90;48.18
78825;BME280;68176;45.554;10.220;2023-03-31T12:31:08;99271.72;;;15.90;48.45
78825;BME280;68176;45.554;10.220;2023-03-31T12:33:38;99263.78;;;15.90;48.35
78825;BME280;68176;45.554;10.220;2023-03-31T12:36:32;99252.38;;;15.90;48.09
78825;BME280;68176;45.554;10.220;2023-03-31T12:55:30;99206.78;;;15.88;49.14
78825;BME280;68176;45.554;10.220;2023-03-31T12:58:38;99201.66;;;15.86;49.11
78825;BME280;68176;45.554;10.220;2023-03-31T13:01:11;99205.97;;;15.87;49.10
78825;BME280;68176;45.554;10.220;2023-03-31T13:03:42;99195.75;;;15.84;49.29
78825;BME280;68176;45.554;10.220;2023-03-31T13:08:57;99188.44;;;15.86;49.70
78825;BME280;68176;45.554;10.220;2023-03-31T13:14:21;99179.88;;;15.84;49.42
78825;BME280;68176;45.554;10.220;2023-03-31T13:16:49;99164.03;;;15.84;49.70
78825;BME280;68176;45.554;10.220;2023-03-31T13:19:34;99169.31;;;15.84;49.69
78825;BME280;68176;45.554;10.220;2023-03-31T13:22:03;99167.66;;;15.83;49.60
78825;BME280;68176;45.554;10.220;2023-03-31T13:24:30;99164.03;;;15.84;50.29
78825;BME280;68176;45.554;10.220;2023-03-31T13:26:58;99163.19;;;15.84;49.88
78825;BME280;68176;45.554;10.220;2023-03-31T13:29:38;99168.13;;;15.87;50.58
78825;BME280;68176;45.554;10.220;2023-03-31T13:32:06;99152.63;;;15.84;49.87
78825;BME280;68176;45.554;10.220;2023-03-31T13:35:16;99146.50;;;15.83;50.09
78825;BME280;68176;45.554;10.220;2023-03-31T13:56:50;99104.19;;;15.83;49.87
78825;BME280;68176;45.554;10.220;2023-03-31T13:59:47;99090.16;;;15.83;49.79
78825;BME280;68176;45.554;10.220;2023-03-31T14:05:33;99094.25;;;15.85;49.67
78825;BME280;68176;45.554;10.220;2023-03-31T14:11:23;99075.13;;;15.83;49.67
78825;BME280;68176;45.554;10.220;2023-03-31T14:14:03;99061.91;;;15.83;49.98
78825;BME280;68176;45.554;10.220;2023-03-31T14:16:32;99062.88;;;15.82;49.97
78825;BME280;68176;45.554;10.220;2023-03-31T14:21:46;99047.69;;;15.84;50.10
78825;BME280;68176;45.554;10.220;2023-03-31T14:24:25;99040.75;;;15.83;50.11
78825;BME280;68176;45.554;10.220;2023-03-31T14:29:57;99045.03;;;15.84;49.21
78825;BME280;68176;45.554;10.220;2023-03-31T14:37:28;99027.72;;;15.82;50.03
78825;BME280;68176;45.554;10.220;2023-03-31T14:39:56;99023.22;;;15.82;50.03
78825;BME280;68176;45.554;10.220;2023-03-31T14:42:27;99021.41;;;15.83;49.78
78825;BME280;68176;45.554;10.220;2023-03-31T14:44:56;99019.59;;;15.83;49.99
78825;BME280;68176;45.554;10.220;2023-03-31T14:47:27;99014.75;;;15.87;49.62
78825;BME280;68176;45.554;10.220;2023-03-31T14:50:01;99018.75;;;15.83;49.76
78825;BME280;68176;45.554;10.220;2023-03-31T14:52:31;99024.88;;;15.83;49.80
78825;BME280;68176;45.554;10.220;2023-03-31T14:54:58;99025.88;;;15.82;49.44
78825;BME280;68176;45.554;10.220;2023-03-31T14:57:30;99014.31;;;15.83;49.91
78825;BME280;68176;45.554;10.220;2023-03-31T14:59:57;99012.66;;;15.82;50.02
78825;BME280;68176;45.554;10.220;2023-03-31T15:02:32;99003.94;;;15.82;49.53
78825;BME280;68176;45.554;10.220;2023-03-31T15:05:01;99002.06;;;15.82;49.67
78825;BME280;68176;45.554;10.220;2023-03-31T15:07:27;98997.81;;;15.81;49.34
78825;BME280;68176;45.554;10.220;2023-03-31T15:09:52;98997.44;;;15.84;49.91
78825;BME280;68176;45.554;10.220;2023-03-31T15:12:22;98992.78;;;15.86;49.74
78825;BME280;68176;45.554;10.220;2023-03-31T15:14:59;98995.41;;;15.86;49.43
78825;BME280;68176;45.554;10.220;2023-03-31T15:17:35;98998.44;;;15.83;50.17
78825;BME280;68176;45.554;10.220;2023-03-31T15:22:48;98998.44;;;15.83;49.49
78825;BME280;68176;45.554;10.220;2023-03-31T15:25:14;98989.88;;;15.81;49.65
78825;BME280;68176;45.554;10.220;2023-03-31T15:27:46;98991.13;;;15.85;49.59
78825;BME280;68176;45.554;10.220;2023-03-31T15:30:15;98989.50;;;15.84;49.51
78825;BME280;68176;45.554;10.220;2023-03-31T15:32:42;98996.41;;;15.85;49.71
78825;BME280;68176;45.554;10.220;2023-03-31T15:35:21;98984.84;;;15.86;49.73
78825;BME280;68176;45.554;10.220;2023-03-31T15:37:49;98989.69;;;15.83;49.52
78825;BME280;68176;45.554;10.220;2023-03-31T15:40:20;98988.84;;;15.82;49.58
78825;BME280;68176;45.554;10.220;2023-03-31T15:42:47;98983.56;;;15.82;49.30
78825;BME280;68176;45.554;10.220;2023-03-31T15:47:51;98987.03;;;15.83;49.53
78825;BME280;68176;45.554;10.220;2023-03-31T15:50:20;98987.88;;;15.83;49.59
78825;BME280;68176;45.554;10.220;2023-03-31T15:52:54;98993.34;;;15.82;49.53
78825;BME280;68176;45.554;10.220;2023-03-31T15:55:29;98986.22;;;15.82;49.60
78825;BME280;68176;45.554;10.220;2023-03-31T15:57:58;98987.50;;;15.86;50.42